Day Rural, Kentucky
Current Conditions -  °F | °C
As of 10:15 PM on Saturday 22 Nov 2014 (Local Time) from KLNP Reporting Station
Clear Clear  
Wind Chill: 10°   Ceiling: Unl
Heat Index: 10°   Visibility: 10mi
Dew Point: -7°   Wind: 12mph
Humidity: 30%   Direction: 170°S
Pressure: 30.2"   Gusts: 16mph
Location:  37.1283°N, 82.8498°W
Report Text: KLNP 230315Z AUTO 17010G14KT 10SM CLR 10/M07 A3020 RMK AO2
Loading
Personal Weather Stations






























Interactive Weather Map New forecast layout! Learn more

10-Day Weather Forecast

Advertisements
Track Severe Weather on mobile